sensor_id;sensor_type;location;lat;lon;timestamp;P1;durP1;ratioP1;P2;durP2;ratioP2
31238;SDS011;17871;31.584;74.450;2022-10-20T00:00:31;112.35;;;64.55;;
31238;SDS011;17871;31.584;74.450;2022-10-20T00:03:01;132.32;;;67.97;;
31238;SDS011;17871;31.584;74.450;2022-10-20T00:05:30;109.63;;;63.92;;
31238;SDS011;17871;31.584;74.450;2022-10-20T00:07:59;113.95;;;61.25;;
31238;SDS011;17871;31.584;74.450;2022-10-20T00:10:29;120.78;;;63.42;;
31238;SDS011;17871;31.584;74.450;2022-10-20T00:12:58;100.78;;;57.53;;
31238;SDS011;17871;31.584;74.450;2022-10-20T00:15:28;115.32;;;58.28;;
31238;SDS011;17871;31.584;74.450;2022-10-20T00:17:57;114.47;;;58.15;;
31238;SDS011;17871;31.584;74.450;2022-10-20T00:20:26;116.88;;;59.00;;
31238;SDS011;17871;31.584;74.450;2022-10-20T00:22:55;107.88;;;58.67;;
31238;SDS011;17871;31.584;74.450;2022-10-20T00:25:24;114.28;;;59.75;;
31238;SDS011;17871;31.584;74.450;2022-10-20T00:27:53;109.53;;;57.58;;
31238;SDS011;17871;31.584;74.450;2022-10-20T00:30:22;109.38;;;58.88;;
31238;SDS011;17871;31.584;74.450;2022-10-20T00:32:52;112.55;;;62.40;;
31238;SDS011;17871;31.584;74.450;2022-10-20T00:35:21;120.00;;;62.85;;
31238;SDS011;17871;31.584;74.450;2022-10-20T00:37:50;108.63;;;62.40;;
31238;SDS011;17871;31.584;74.450;2022-10-20T00:40:20;115.90;;;60.17;;
31238;SDS011;17871;31.584;74.450;2022-10-20T00:42:49;116.93;;;63.05;;
31238;SDS011;17871;31.584;74.450;2022-10-20T00:45:19;118.55;;;65.75;;
31238;SDS011;17871;31.584;74.450;2022-10-20T00:47:53;121.38;;;63.85;;
31238;SDS011;17871;31.584;74.450;2022-10-20T00:50:28;114.60;;;64.25;;
31238;SDS011;17871;31.584;74.450;2022-10-20T00:53:01;129.25;;;66.65;;
31238;SDS011;17871;31.584;74.450;2022-10-20T00:55:31;132.13;;;65.78;;
31238;SDS011;17871;31.584;74.450;2022-10-20T00:58:02;131.60;;;64.43;;
31238;SDS011;17871;31.584;74.450;2022-10-20T01:00:32;110.05;;;62.63;;
31238;SDS011;17871;31.584;74.450;2022-10-20T01:03:02;128.60;;;63.75;;
31238;SDS011;17871;31.584;74.450;2022-10-20T01:05:35;120.68;;;60.45;;
31238;SDS011;17871;31.584;74.450;2022-10-20T01:08:05;123.63;;;62.30;;
31238;SDS011;17871;31.584;74.450;2022-10-20T01:10:40;113.47;;;57.65;;
31238;SDS011;17871;31.584;74.450;2022-10-20T01:13:43;111.75;;;60.60;;
31238;SDS011;17871;31.584;74.450;2022-10-20T01:21:44;113.03;;;60.50;;
31238;SDS011;17871;31.584;74.450;2022-10-20T01:27:54;110.18;;;58.30;;
31238;SDS011;17871;31.584;74.450;2022-10-20T01:30:42;114.85;;;57.70;;
31238;SDS011;17871;31.584;74.450;2022-10-20T01:33:31;104.30;;;57.58;;
31238;SDS011;17871;31.584;74.450;2022-10-20T01:36:19;105.45;;;60.85;;
31238;SDS011;17871;31.584;74.450;2022-10-20T01:38:55;125.50;;;59.47;;
31238;SDS011;17871;31.584;74.450;2022-10-20T01:41:32;121.22;;;62.08;;
31238;SDS011;17871;31.584;74.450;2022-10-20T01:44:07;123.88;;;62.60;;
31238;SDS011;17871;31.584;74.450;2022-10-20T01:46:40;136.73;;;66.72;;
31238;SDS011;17871;31.584;74.450;2022-10-20T01:49:12;128.05;;;65.30;;
31238;SDS011;17871;31.584;74.450;2022-10-20T01:51:43;121.60;;;62.78;;
31238;SDS011;17871;31.584;74.450;2022-10-20T01:54:23;117.90;;;62.63;;
31238;SDS011;17871;31.584;74.450;2022-10-20T02:05:54;113.85;;;59.47;;
31238;SDS011;17871;31.584;74.450;2022-10-20T02:09:15;111.07;;;57.13;;
31238;SDS011;17871;31.584;74.450;2022-10-20T02:12:12;103.72;;;57.40;;
31238;SDS011;17871;31.584;74.450;2022-10-20T02:14:48;103.55;;;56.22;;
31238;SDS011;17871;31.584;74.450;2022-10-20T02:17:23;125.82;;;59.92;;
31238;SDS011;17871;31.584;74.450;2022-10-20T02:19:54;103.63;;;57.80;;
31238;SDS011;17871;31.584;74.450;2022-10-20T02:22:25;115.80;;;59.33;;
31238;SDS011;17871;31.584;74.450;2022-10-20T02:24:55;130.10;;;60.78;;
31238;SDS011;17871;31.584;74.450;2022-10-20T02:27:28;124.20;;;63.58;;
31238;SDS011;17871;31.584;74.450;2022-10-20T02:30:04;130.73;;;65.63;;
31238;SDS011;17871;31.584;74.450;2022-10-20T02:32:37;125.90;;;66.13;;
31238;SDS011;17871;31.584;74.450;2022-10-20T02:35:12;196.88;;;70.28;;
31238;SDS011;17871;31.584;74.450;2022-10-20T02:37:43;148.18;;;67.13;;
31238;SDS011;17871;31.584;74.450;2022-10-20T02:40:13;125.20;;;65.15;;
31238;SDS011;17871;31.584;74.450;2022-10-20T02:42:43;145.80;;;63.70;;
31238;SDS011;17871;31.584;74.450;2022-10-20T02:45:12;279.88;;;74.22;;
31238;SDS011;17871;31.584;74.450;2022-10-20T02:47:42;428.98;;;80.80;;
31238;SDS011;17871;31.584;74.450;2022-10-20T02:50:11;125.32;;;65.20;;
31238;SDS011;17871;31.584;74.450;2022-10-20T02:52:41;131.50;;;64.72;;
31238;SDS011;17871;31.584;74.450;2022-10-20T02:55:10;123.05;;;60.65;;
31238;SDS011;17871;31.584;74.450;2022-10-20T02:57:40;125.25;;;58.67;;
31238;SDS011;17871;31.584;74.450;2022-10-20T03:00:10;117.00;;;55.53;;
31238;SDS011;17871;31.584;74.450;2022-10-20T03:02:41;110.05;;;53.22;;
31238;SDS011;17871;31.584;74.450;2022-10-20T03:05:10;137.00;;;57.38;;
31238;SDS011;17871;31.584;74.450;2022-10-20T03:07:40;124.72;;;54.10;;
31238;SDS011;17871;31.584;74.450;2022-10-20T03:10:10;116.15;;;53.10;;
31238;SDS011;17871;31.584;74.450;2022-10-20T03:12:39;100.28;;;51.78;;
31238;SDS011;17871;31.584;74.450;2022-10-20T03:15:10;116.20;;;51.00;;
31238;SDS011;17871;31.584;74.450;2022-10-20T03:17:39;104.97;;;51.75;;
31238;SDS011;17871;31.584;74.450;2022-10-20T03:20:09;100.97;;;49.33;;
31238;SDS011;17871;31.584;74.450;2022-10-20T03:22:39;98.75;;;47.40;;
31238;SDS011;17871;31.584;74.450;2022-10-20T03:25:09;115.75;;;52.55;;
31238;SDS011;17871;31.584;74.450;2022-10-20T03:27:38;108.35;;;51.40;;
31238;SDS011;17871;31.584;74.450;2022-10-20T03:30:08;114.00;;;48.50;;
31238;SDS011;17871;31.584;74.450;2022-10-20T03:32:38;142.75;;;51.58;;
31238;SDS011;17871;31.584;74.450;2022-10-20T03:35:07;122.90;;;49.90;;
31238;SDS011;17871;31.584;74.450;2022-10-20T03:37:38;107.03;;;48.35;;
31238;SDS011;17871;31.584;74.450;2022-10-20T03:40:08;109.38;;;45.88;;
31238;SDS011;17871;31.584;74.450;2022-10-20T03:42:37;95.50;;;48.33;;
31238;SDS011;17871;31.584;74.450;2022-10-20T03:45:07;104.85;;;46.63;;
31238;SDS011;17871;31.584;74.450;2022-10-20T03:47:42;98.57;;;48.35;;
31238;SDS011;17871;31.584;74.450;2022-10-20T03:50:12;99.45;;;45.22;;
31238;SDS011;17871;31.584;74.450;2022-10-20T03:52:41;96.85;;;46.38;;
31238;SDS011;17871;31.584;74.450;2022-10-20T03:55:11;95.07;;;46.03;;
31238;SDS011;17871;31.584;74.450;2022-10-20T03:57:41;102.65;;;46.70;;
31238;SDS011;17871;31.584;74.450;2022-10-20T04:00:10;110.65;;;45.13;;
31238;SDS011;17871;31.584;74.450;2022-10-20T04:02:42;96.70;;;47.00;;
31238;SDS011;17871;31.584;74.450;2022-10-20T04:05:15;89.10;;;47.17;;
31238;SDS011;17871;31.584;74.450;2022-10-20T04:07:47;98.35;;;45.88;;
31238;SDS011;17871;31.584;74.450;2022-10-20T04:10:17;96.65;;;46.30;;
31238;SDS011;17871;31.584;74.450;2022-10-20T04:12:46;94.93;;;44.40;;
31238;SDS011;17871;31.584;74.450;2022-10-20T04:15:16;102.78;;;44.10;;
31238;SDS011;17871;31.584;74.450;2022-10-20T04:17:46;98.25;;;44.10;;
31238;SDS011;17871;31.584;74.450;2022-10-20T04:20:16;81.70;;;41.08;;
31238;SDS011;17871;31.584;74.450;2022-10-20T04:22:46;83.72;;;42.13;;
31238;SDS011;17871;31.584;74.450;2022-10-20T04:25:16;103.55;;;42.33;;
31238;SDS011;17871;31.584;74.450;2022-10-20T04:27:45;108.53;;;42.83;;
31238;SDS011;17871;31.584;74.450;2022-10-20T04:30:15;87.03;;;42.58;;
31238;SDS011;17871;31.584;74.450;2022-10-20T04:32:45;162.90;;;48.45;;
31238;SDS011;17871;31.584;74.450;2022-10-20T04:35:15;97.85;;;39.70;;
31238;SDS011;17871;31.584;74.450;2022-10-20T04:37:45;88.38;;;42.92;;
31238;SDS011;17871;31.584;74.450;2022-10-20T04:40:14;80.38;;;41.08;;
31238;SDS011;17871;31.584;74.450;2022-10-20T04:42:44;96.32;;;40.45;;
31238;SDS011;17871;31.584;74.450;2022-10-20T04:45:13;82.15;;;40.88;;
31238;SDS011;17871;31.584;74.450;2022-10-20T04:47:43;73.72;;;38.13;;
31238;SDS011;17871;31.584;74.450;2022-10-20T04:50:16;95.38;;;39.13;;
31238;SDS011;17871;31.584;74.450;2022-10-20T04:53:06;83.30;;;36.65;;
31238;SDS011;17871;31.584;74.450;2022-10-20T04:55:37;70.73;;;37.90;;
31238;SDS011;17871;31.584;74.450;2022-10-20T04:58:06;85.22;;;37.95;;
31238;SDS011;17871;31.584;74.450;2022-10-20T05:00:36;71.28;;;37.25;;
31238;SDS011;17871;31.584;74.450;2022-10-20T05:03:05;73.47;;;35.33;;
31238;SDS011;17871;31.584;74.450;2022-10-20T05:05:35;63.03;;;34.65;;
31238;SDS011;17871;31.584;74.450;2022-10-20T05:08:04;75.03;;;35.40;;
31238;SDS011;17871;31.584;74.450;2022-10-20T05:10:33;73.90;;;34.22;;
31238;SDS011;17871;31.584;74.450;2022-10-20T05:13:02;80.85;;;34.45;;
31238;SDS011;17871;31.584;74.450;2022-10-20T05:15:31;87.72;;;35.17;;
31238;SDS011;17871;31.584;74.450;2022-10-20T05:18:01;81.85;;;34.95;;
31238;SDS011;17871;31.584;74.450;2022-10-20T05:23:12;64.15;;;33.47;;
31238;SDS011;17871;31.584;74.450;2022-10-20T05:25:41;65.75;;;34.58;;
31238;SDS011;17871;31.584;74.450;2022-10-20T05:28:11;78.43;;;34.60;;
31238;SDS011;17871;31.584;74.450;2022-10-20T05:30:40;68.57;;;36.03;;
31238;SDS011;17871;31.584;74.450;2022-10-20T05:33:10;76.20;;;34.53;;
31238;SDS011;17871;31.584;74.450;2022-10-20T05:35:38;74.38;;;35.13;;
31238;SDS011;17871;31.584;74.450;2022-10-20T05:38:08;82.78;;;35.03;;
31238;SDS011;17871;31.584;74.450;2022-10-20T05:40:37;76.75;;;34.55;;
31238;SDS011;17871;31.584;74.450;2022-10-20T05:43:07;67.22;;;34.85;;
31238;SDS011;17871;31.584;74.450;2022-10-20T05:45:36;75.32;;;35.42;;
31238;SDS011;17871;31.584;74.450;2022-10-20T05:48:06;76.60;;;36.67;;
31238;SDS011;17871;31.584;74.450;2022-10-20T05:50:35;90.75;;;36.70;;
31238;SDS011;17871;31.584;74.450;2022-10-20T05:53:05;73.93;;;34.20;;
31238;SDS011;17871;31.584;74.450;2022-10-20T05:55:34;75.93;;;35.85;;
31238;SDS011;17871;31.584;74.450;2022-10-20T05:58:04;93.15;;;38.22;;
31238;SDS011;17871;31.584;74.450;2022-10-20T06:00:33;72.13;;;36.63;;
31238;SDS011;17871;31.584;74.450;2022-10-20T06:03:09;81.07;;;36.55;;
31238;SDS011;17871;31.584;74.450;2022-10-20T06:05:43;69.78;;;35.80;;
31238;SDS011;17871;31.584;74.450;2022-10-20T06:08:12;80.47;;;39.08;;
31238;SDS011;17871;31.584;74.450;2022-10-20T06:10:42;78.80;;;37.08;;
31238;SDS011;17871;31.584;74.450;2022-10-20T06:13:11;70.10;;;36.17;;
31238;SDS011;17871;31.584;74.450;2022-10-20T06:15:41;61.25;;;34.42;;
31238;SDS011;17871;31.584;74.450;2022-10-20T06:18:10;80.05;;;33.90;;
31238;SDS011;17871;31.584;74.450;2022-10-20T06:20:39;68.93;;;34.95;;
31238;SDS011;17871;31.584;74.450;2022-10-20T06:23:09;70.63;;;33.08;;
31238;SDS011;17871;31.584;74.450;2022-10-20T06:25:39;66.75;;;33.80;;
31238;SDS011;17871;31.584;74.450;2022-10-20T06:28:11;81.03;;;35.88;;
31238;SDS011;17871;31.584;74.450;2022-10-20T06:30:40;63.63;;;36.00;;
31238;SDS011;17871;31.584;74.450;2022-10-20T06:33:09;91.07;;;38.78;;
31238;SDS011;17871;31.584;74.450;2022-10-20T06:35:42;76.68;;;39.00;;
31238;SDS011;17871;31.584;74.450;2022-10-20T06:38:11;84.70;;;37.50;;
31238;SDS011;17871;31.584;74.450;2022-10-20T06:40:40;74.20;;;38.63;;
31238;SDS011;17871;31.584;74.450;2022-10-20T06:43:09;104.85;;;39.67;;
31238;SDS011;17871;31.584;74.450;2022-10-20T06:45:38;130.55;;;42.22;;
31238;SDS011;17871;31.584;74.450;2022-10-20T06:48:07;100.78;;;45.20;;
31238;SDS011;17871;31.584;74.450;2022-10-20T06:50:37;79.25;;;39.95;;
31238;SDS011;17871;31.584;74.450;2022-10-20T06:53:06;83.50;;;44.60;;
31238;SDS011;17871;31.584;74.450;2022-10-20T06:55:35;104.78;;;47.28;;
31238;SDS011;17871;31.584;74.450;2022-10-20T06:58:05;109.93;;;46.75;;
31238;SDS011;17871;31.584;74.450;2022-10-20T07:00:34;82.43;;;43.53;;
31238;SDS011;17871;31.584;74.450;2022-10-20T07:03:03;93.55;;;42.03;;
31238;SDS011;17871;31.584;74.450;2022-10-20T07:05:33;81.93;;;43.45;;
31238;SDS011;17871;31.584;74.450;2022-10-20T07:08:05;81.60;;;43.47;;
31238;SDS011;17871;31.584;74.450;2022-10-20T07:11:02;97.32;;;45.88;;
31238;SDS011;17871;31.584;74.450;2022-10-20T07:13:34;181.25;;;43.83;;
31238;SDS011;17871;31.584;74.450;2022-10-20T07:16:05;156.57;;;45.13;;
31238;SDS011;17871;31.584;74.450;2022-10-20T07:18:36;129.73;;;40.42;;
31238;SDS011;17871;31.584;74.450;2022-10-20T07:21:06;124.72;;;41.83;;
31238;SDS011;17871;31.584;74.450;2022-10-20T07:23:46;86.10;;;38.50;;
31238;SDS011;17871;31.584;74.450;2022-10-20T07:26:21;112.28;;;41.30;;
31238;SDS011;17871;31.584;74.450;2022-10-20T07:28:53;136.75;;;53.10;;
31238;SDS011;17871;31.584;74.450;2022-10-20T07:31:28;145.73;;;50.40;;
31238;SDS011;17871;31.584;74.450;2022-10-20T07:33:59;114.10;;;50.05;;
31238;SDS011;17871;31.584;74.450;2022-10-20T07:36:49;131.32;;;48.88;;
31238;SDS011;17871;31.584;74.450;2022-10-20T07:39:20;126.63;;;48.47;;
31238;SDS011;17871;31.584;74.450;2022-10-20T07:41:50;124.47;;;48.00;;
31238;SDS011;17871;31.584;74.450;2022-10-20T07:44:20;137.35;;;47.78;;
31238;SDS011;17871;31.584;74.450;2022-10-20T07:46:52;157.68;;;43.72;;
31238;SDS011;17871;31.584;74.450;2022-10-20T07:49:24;112.22;;;40.45;;
31238;SDS011;17871;31.584;74.450;2022-10-20T07:52:11;123.45;;;37.83;;
31238;SDS011;17871;31.584;74.450;2022-10-20T07:54:44;107.30;;;38.47;;
31238;SDS011;17871;31.584;74.450;2022-10-20T07:57:14;112.18;;;41.33;;
31238;SDS011;17871;31.584;74.450;2022-10-20T07:59:43;114.53;;;39.45;;
31238;SDS011;17871;31.584;74.450;2022-10-20T08:02:14;140.57;;;39.95;;
31238;SDS011;17871;31.584;74.450;2022-10-20T08:04:44;95.93;;;34.10;;
31238;SDS011;17871;31.584;74.450;2022-10-20T08:07:14;145.13;;;38.00;;
31238;SDS011;17871;31.584;74.450;2022-10-20T08:09:44;107.80;;;41.03;;
31238;SDS011;17871;31.584;74.450;2022-10-20T08:12:14;78.32;;;33.03;;
31238;SDS011;17871;31.584;74.450;2022-10-20T08:14:44;77.88;;;33.40;;
31238;SDS011;17871;31.584;74.450;2022-10-20T08:17:27;83.75;;;32.55;;
31238;SDS011;17871;31.584;74.450;2022-10-20T08:20:00;90.13;;;34.47;;
31238;SDS011;17871;31.584;74.450;2022-10-20T08:22:53;90.32;;;33.38;;
31238;SDS011;17871;31.584;74.450;2022-10-20T08:25:26;86.80;;;33.63;;
31238;SDS011;17871;31.584;74.450;2022-10-20T08:27:56;118.70;;;39.20;;
31238;SDS011;17871;31.584;74.450;2022-10-20T08:30:26;116.55;;;35.03;;
31238;SDS011;17871;31.584;74.450;2022-10-20T08:32:55;96.72;;;33.28;;
31238;SDS011;17871;31.584;74.450;2022-10-20T08:35:24;69.85;;;27.85;;
31238;SDS011;17871;31.584;74.450;2022-10-20T08:37:54;63.88;;;28.58;;
31238;SDS011;17871;31.584;74.450;2022-10-20T08:40:25;76.80;;;28.90;;
31238;SDS011;17871;31.584;74.450;2022-10-20T08:43:16;58.35;;;27.27;;
31238;SDS011;17871;31.584;74.450;2022-10-20T08:46:28;77.18;;;27.10;;
31238;SDS011;17871;31.584;74.450;2022-10-20T08:49:04;67.95;;;24.20;;
31238;SDS011;17871;31.584;74.450;2022-10-20T08:51:41;67.57;;;25.02;;
31238;SDS011;17871;31.584;74.450;2022-10-20T08:54:11;103.85;;;25.55;;
31238;SDS011;17871;31.584;74.450;2022-10-20T08:56:42;73.35;;;23.40;;
31238;SDS011;17871;31.584;74.450;2022-10-20T09:04:55;81.32;;;27.48;;
31238;SDS011;17871;31.584;74.450;2022-10-20T09:07:33;77.30;;;27.70;;
31238;SDS011;17871;31.584;74.450;2022-10-20T09:16:24;77.60;;;27.98;;
31238;SDS011;17871;31.584;74.450;2022-10-20T09:22:25;86.65;;;23.50;;
31238;SDS011;17871;31.584;74.450;2022-10-20T09:25:02;53.78;;;23.60;;
31238;SDS011;17871;31.584;74.450;2022-10-20T09:30:24;78.95;;;21.15;;
31238;SDS011;17871;31.584;74.450;2022-10-20T09:32:56;80.15;;;23.15;;
31238;SDS011;17871;31.584;74.450;2022-10-20T09:35:31;100.32;;;26.13;;
31238;SDS011;17871;31.584;74.450;2022-10-20T09:40:43;71.70;;;21.60;;
31238;SDS011;17871;31.584;74.450;2022-10-20T09:43:22;54.17;;;21.55;;
31238;SDS011;17871;31.584;74.450;2022-10-20T09:45:58;58.53;;;19.10;;
31238;SDS011;17871;31.584;74.450;2022-10-20T09:48:39;100.57;;;23.73;;
31238;SDS011;17871;31.584;74.450;2022-10-20T09:51:19;51.45;;;19.25;;
31238;SDS011;17871;31.584;74.450;2022-10-20T09:56:36;47.22;;;18.00;;
31238;SDS011;17871;31.584;74.450;2022-10-20T10:04:45;63.88;;;23.38;;
31238;SDS011;17871;31.584;74.450;2022-10-20T10:12:51;53.58;;;19.85;;
31238;SDS011;17871;31.584;74.450;2022-10-20T10:15:39;71.72;;;15.43;;
31238;SDS011;17871;31.584;74.450;2022-10-20T10:18:19;28.88;;;13.35;;
31238;SDS011;17871;31.584;74.450;2022-10-20T10:21:00;39.83;;;13.68;;
31238;SDS011;17871;31.584;74.450;2022-10-20T10:23:35;39.58;;;13.27;;
31238;SDS011;17871;31.584;74.450;2022-10-20T10:26:51;35.70;;;11.65;;
31238;SDS011;17871;31.584;74.450;2022-10-20T10:32:00;44.22;;;12.23;;
31238;SDS011;17871;31.584;74.450;2022-10-20T10:37:18;42.30;;;15.48;;
31238;SDS011;17871;31.584;74.450;2022-10-20T10:39:47;48.97;;;18.13;;
31238;SDS011;17871;31.584;74.450;2022-10-20T10:51:00;101.10;;;23.52;;
31238;SDS011;17871;31.584;74.450;2022-10-20T10:53:48;50.30;;;20.88;;
31238;SDS011;17871;31.584;74.450;2022-10-20T10:56:23;45.30;;;18.88;;
31238;SDS011;17871;31.584;74.450;2022-10-20T10:59:14;42.67;;;19.77;;
31238;SDS011;17871;31.584;74.450;2022-10-20T11:10:39;121.25;;;25.83;;
31238;SDS011;17871;31.584;74.450;2022-10-20T11:13:20;53.15;;;22.25;;
31238;SDS011;17871;31.584;74.450;2022-10-20T11:18:49;106.57;;;41.55;;
31238;SDS011;17871;31.584;74.450;2022-10-20T11:21:42;69.38;;;28.70;;
31238;SDS011;17871;31.584;74.450;2022-10-20T11:27:10;99.88;;;34.97;;
31238;SDS011;17871;31.584;74.450;2022-10-20T11:29:54;64.63;;;28.67;;
31238;SDS011;17871;31.584;74.450;2022-10-20T11:32:53;58.97;;;26.75;;
31238;SDS011;17871;31.584;74.450;2022-10-20T11:36:11;73.68;;;32.15;;
31238;SDS011;17871;31.584;74.450;2022-10-20T11:39:00;79.13;;;26.13;;
31238;SDS011;17871;31.584;74.450;2022-10-20T11:47:12;81.18;;;32.45;;
31238;SDS011;17871;31.584;74.450;2022-10-20T11:49:49;65.95;;;29.83;;
31238;SDS011;17871;31.584;74.450;2022-10-20T11:52:37;67.55;;;29.90;;
31238;SDS011;17871;31.584;74.450;2022-10-20T12:16:01;76.35;;;26.00;;
31238;SDS011;17871;31.584;74.450;2022-10-20T12:19:04;69.82;;;23.85;;
31238;SDS011;17871;31.584;74.450;2022-10-20T12:24:38;37.45;;;16.60;;
31238;SDS011;17871;31.584;74.450;2022-10-20T12:32:24;48.65;;;18.05;;
31238;SDS011;17871;31.584;74.450;2022-10-20T12:37:38;42.42;;;18.45;;
31238;SDS011;17871;31.584;74.450;2022-10-20T12:42:45;33.95;;;17.17;;
31238;SDS011;17871;31.584;74.450;2022-10-20T12:47:46;36.35;;;15.32;;
31238;SDS011;17871;31.584;74.450;2022-10-20T12:50:41;29.20;;;14.15;;
31238;SDS011;17871;31.584;74.450;2022-10-20T12:55:55;36.78;;;15.90;;
31238;SDS011;17871;31.584;74.450;2022-10-20T13:15:36;38.95;;;15.85;;
31238;SDS011;17871;31.584;74.450;2022-10-20T13:23:55;28.27;;;14.23;;
31238;SDS011;17871;31.584;74.450;2022-10-20T13:26:51;32.85;;;13.88;;
31238;SDS011;17871;31.584;74.450;2022-10-20T13:29:35;22.73;;;11.63;;
31238;SDS011;17871;31.584;74.450;2022-10-20T13:32:16;39.55;;;14.75;;
31238;SDS011;17871;31.584;74.450;2022-10-20T13:35:09;18.92;;;11.50;;
31238;SDS011;17871;31.584;74.450;2022-10-20T13:46:04;18.05;;;8.70;;
31238;SDS011;17871;31.584;74.450;2022-10-20T13:52:02;26.50;;;8.38;;
31238;SDS011;17871;31.584;74.450;2022-10-20T13:54:34;23.13;;;10.15;;
31238;SDS011;17871;31.584;74.450;2022-10-20T13:57:28;17.27;;;8.82;;
31238;SDS011;17871;31.584;74.450;2022-10-20T14:00:03;19.85;;;10.32;;
31238;SDS011;17871;31.584;74.450;2022-10-20T14:02:52;26.33;;;11.07;;
31238;SDS011;17871;31.584;74.450;2022-10-20T14:05:37;18.85;;;7.65;;
31238;SDS011;17871;31.584;74.450;2022-10-20T14:08:07;18.95;;;9.57;;
31238;SDS011;17871;31.584;74.450;2022-10-20T14:10:48;23.85;;;8.65;;
31238;SDS011;17871;31.584;74.450;2022-10-20T14:13:28;18.08;;;8.45;;
31238;SDS011;17871;31.584;74.450;2022-10-20T14:16:04;14.85;;;8.25;;
31238;SDS011;17871;31.584;74.450;2022-10-20T14:18:44;14.65;;;7.80;;
31238;SDS011;17871;31.584;74.450;2022-10-20T14:21:39;31.90;;;9.18;;
31238;SDS011;17871;31.584;74.450;2022-10-20T14:24:28;15.73;;;8.48;;
31238;SDS011;17871;31.584;74.450;2022-10-20T14:27:02;28.10;;;9.48;;
31238;SDS011;17871;31.584;74.450;2022-10-20T14:29:34;24.98;;;10.38;;
31238;SDS011;17871;31.584;74.450;2022-10-20T14:32:09;23.58;;;10.07;;
31238;SDS011;17871;31.584;74.450;2022-10-20T14:37:28;20.90;;;10.00;;
31238;SDS011;17871;31.584;74.450;2022-10-20T14:40:04;22.33;;;10.70;;
31238;SDS011;17871;31.584;74.450;2022-10-20T14:42:45;28.90;;;11.75;;
31238;SDS011;17871;31.584;74.450;2022-10-20T14:45:19;24.30;;;10.80;;
31238;SDS011;17871;31.584;74.450;2022-10-20T14:47:53;28.90;;;11.32;;
31238;SDS011;17871;31.584;74.450;2022-10-20T14:50:35;25.10;;;11.40;;
31238;SDS011;17871;31.584;74.450;2022-10-20T14:53:28;31.70;;;12.15;;
31238;SDS011;17871;31.584;74.450;2022-10-20T15:04:04;36.55;;;15.50;;
31238;SDS011;17871;31.584;74.450;2022-10-20T15:10:07;30.70;;;15.50;;
31238;SDS011;17871;31.584;74.450;2022-10-20T15:12:42;38.72;;;14.80;;
31238;SDS011;17871;31.584;74.450;2022-10-20T15:18:09;32.13;;;14.80;;
31238;SDS011;17871;31.584;74.450;2022-10-20T15:20:42;34.95;;;14.73;;
31238;SDS011;17871;31.584;74.450;2022-10-20T15:23:25;30.27;;;13.38;;
31238;SDS011;17871;31.584;74.450;2022-10-20T15:26:11;30.77;;;13.77;;
31238;SDS011;17871;31.584;74.450;2022-10-20T15:28:48;40.17;;;14.93;;
31238;SDS011;17871;31.584;74.450;2022-10-20T15:31:19;28.80;;;13.55;;
31238;SDS011;17871;31.584;74.450;2022-10-20T15:33:53;27.00;;;11.13;;
31238;SDS011;17871;31.584;74.450;2022-10-20T15:36:27;24.20;;;10.43;;
31238;SDS011;17871;31.584;74.450;2022-10-20T15:39:08;32.05;;;10.25;;
31238;SDS011;17871;31.584;74.450;2022-10-20T15:41:39;16.05;;;9.27;;
31238;SDS011;17871;31.584;74.450;2022-10-20T15:44:13;17.30;;;9.23;;
31238;SDS011;17871;31.584;74.450;2022-10-20T15:46:49;24.73;;;10.02;;
31238;SDS011;17871;31.584;74.450;2022-10-20T15:49:23;24.98;;;10.60;;
31238;SDS011;17871;31.584;74.450;2022-10-20T15:51:52;18.10;;;9.18;;
31238;SDS011;17871;31.584;74.450;2022-10-20T15:54:21;29.60;;;12.85;;
31238;SDS011;17871;31.584;74.450;2022-10-20T15:56:50;23.98;;;11.57;;
31238;SDS011;17871;31.584;74.450;2022-10-20T15:59:20;37.33;;;15.45;;
31238;SDS011;17871;31.584;74.450;2022-10-20T16:01:49;38.80;;;15.95;;
31238;SDS011;17871;31.584;74.450;2022-10-20T16:04:19;27.90;;;14.15;;
31238;SDS011;17871;31.584;74.450;2022-10-20T16:06:58;32.70;;;14.98;;
31238;SDS011;17871;31.584;74.450;2022-10-20T16:09:29;50.17;;;16.35;;
31238;SDS011;17871;31.584;74.450;2022-10-20T16:11:58;37.08;;;16.48;;
31238;SDS011;17871;31.584;74.450;2022-10-20T16:14:27;36.40;;;14.98;;
31238;SDS011;17871;31.584;74.450;2022-10-20T16:16:56;31.83;;;13.57;;
31238;SDS011;17871;31.584;74.450;2022-10-20T16:19:29;22.25;;;11.50;;
31238;SDS011;17871;31.584;74.450;2022-10-20T16:22:17;18.48;;;9.80;;
31238;SDS011;17871;31.584;74.450;2022-10-20T16:24:46;26.20;;;10.07;;
31238;SDS011;17871;31.584;74.450;2022-10-20T16:27:15;19.85;;;11.80;;
31238;SDS011;17871;31.584;74.450;2022-10-20T16:29:44;20.92;;;12.20;;
31238;SDS011;17871;31.584;74.450;2022-10-20T16:32:16;32.13;;;15.50;;
31238;SDS011;17871;31.584;74.450;2022-10-20T16:34:45;36.88;;;17.08;;
31238;SDS011;17871;31.584;74.450;2022-10-20T16:37:14;32.05;;;17.17;;
31238;SDS011;17871;31.584;74.450;2022-10-20T16:39:44;31.75;;;14.90;;
31238;SDS011;17871;31.584;74.450;2022-10-20T16:42:13;28.13;;;13.27;;
31238;SDS011;17871;31.584;74.450;2022-10-20T16:44:43;38.20;;;13.45;;
31238;SDS011;17871;31.584;74.450;2022-10-20T16:47:13;29.30;;;11.88;;
31238;SDS011;17871;31.584;74.450;2022-10-20T16:49:42;26.88;;;11.35;;
31238;SDS011;17871;31.584;74.450;2022-10-20T16:52:11;20.05;;;10.18;;
31238;SDS011;17871;31.584;74.450;2022-10-20T16:54:40;24.73;;;11.20;;
31238;SDS011;17871;31.584;74.450;2022-10-20T16:57:10;37.38;;;11.82;;
31238;SDS011;17871;31.584;74.450;2022-10-20T16:59:40;28.40;;;12.50;;
31238;SDS011;17871;31.584;74.450;2022-10-20T17:02:11;30.58;;;11.95;;
31238;SDS011;17871;31.584;74.450;2022-10-20T17:04:39;43.53;;;14.45;;
31238;SDS011;17871;31.584;74.450;2022-10-20T17:07:09;37.17;;;13.63;;
31238;SDS011;17871;31.584;74.450;2022-10-20T17:09:38;35.53;;;15.60;;
31238;SDS011;17871;31.584;74.450;2022-10-20T17:12:08;34.45;;;15.63;;
31238;SDS011;17871;31.584;74.450;2022-10-20T17:14:37;30.08;;;14.80;;
31238;SDS011;17871;31.584;74.450;2022-10-20T17:17:07;51.67;;;13.77;;
31238;SDS011;17871;31.584;74.450;2022-10-20T17:19:37;17.45;;;10.85;;
31238;SDS011;17871;31.584;74.450;2022-10-20T17:22:08;27.30;;;10.57;;
31238;SDS011;17871;31.584;74.450;2022-10-20T17:24:42;19.15;;;11.75;;
31238;SDS011;17871;31.584;74.450;2022-10-20T17:27:12;129.63;;;20.38;;
31238;SDS011;17871;31.584;74.450;2022-10-20T17:29:41;24.77;;;10.57;;
31238;SDS011;17871;31.584;74.450;2022-10-20T17:32:10;20.02;;;10.23;;
31238;SDS011;17871;31.584;74.450;2022-10-20T17:34:44;19.30;;;10.57;;
31238;SDS011;17871;31.584;74.450;2022-10-20T17:37:14;25.20;;;10.77;;
31238;SDS011;17871;31.584;74.450;2022-10-20T17:39:44;22.02;;;11.15;;
31238;SDS011;17871;31.584;74.450;2022-10-20T17:42:13;21.95;;;10.02;;
31238;SDS011;17871;31.584;74.450;2022-10-20T17:44:43;31.92;;;10.50;;